Time;durP1;ratioP1;P1;durP2;ratioP2;P2;SDS_P1;SDS_P2;PMS_P1;PMS_P2;Temp;Humidity;BMP_temperature;BMP_pressure;BME280_temperature;BME280_humidity;BME280_pressure;Samples;Min_cycle;Max_cycle;Signal;HPM_P1;HPM_P2
2022/03/07 00:00:56;;;;;;;50.80;28.87;;;;;;;-1.69;65.25;96871.27;1752065;82;21545;-83
2022/03/07 00:03:21;;;;;;;50.65;28.90;;;;;;;-1.67;65.21;96877.54;1750230;82;21096;-83
2022/03/07 00:05:47;;;;;;;49.93;30.48;;;;;;;-1.67;65.65;96886.00;1738505;82;20990;-84
2022/03/07 00:08:14;;;;;;;52.08;30.77;;;;;;;-1.68;66.13;96879.27;1738528;82;21052;-84
2022/03/07 00:10:40;;;;;;;61.40;36.70;;;;;;;-1.64;66.02;96878.16;1738570;82;21379;-84
2022/03/07 00:13:05;;;;;;;64.42;36.20;;;;;;;-1.62;66.02;96873.81;1694168;82;20962;-84
2022/03/07 00:15:31;;;;;;;70.20;39.53;;;;;;;-1.60;65.95;96878.81;1738619;82;20965;-84
2022/03/07 00:17:57;;;;;;;71.55;40.45;;;;;;;-1.63;65.87;96878.98;1738572;82;20993;-84
2022/03/07 00:20:23;;;;;;;53.20;30.20;;;;;;;-1.65;66.05;96879.08;1738521;82;20974;-83
2022/03/07 00:22:49;;;;;;;78.47;44.03;;;;;;;-1.70;66.53;96878.55;1738623;82;20997;-83
2022/03/07 00:25:16;;;;;;;67.95;39.48;;;;;;;-1.75;66.72;96880.57;1738613;82;20993;-83
2022/03/07 00:27:41;;;;;;;64.15;37.58;;;;;;;-1.79;66.94;96880.83;1738731;82;20975;-83
2022/03/07 00:30:08;;;;;;;67.62;39.53;;;;;;;-1.86;67.41;96882.95;1738588;82;21080;-83
2022/03/07 00:32:34;;;;;;;63.65;35.35;;;;;;;-1.95;67.60;96888.16;1738551;82;21034;-84
2022/03/07 00:35:00;;;;;;;61.98;36.00;;;;;;;-1.99;68.26;96880.77;1738608;82;21001;-83
2022/03/07 00:37:26;;;;;;;61.75;36.48;;;;;;;-2.12;68.54;96884.50;1738608;82;21029;-83
2022/03/07 00:39:51;;;;;;;55.38;34.90;;;;;;;-2.13;69.08;96882.41;1717818;82;21017;-83
2022/03/07 00:42:17;;;;;;;49.10;30.40;;;;;;;-2.15;69.64;96879.59;1738527;82;21391;-84
2022/03/07 00:44:43;;;;;;;48.80;30.17;;;;;;;-2.17;70.37;96880.96;1738642;82;20927;-83
2022/03/07 00:47:09;;;;;;;46.58;28.27;;;;;;;-2.22;70.41;96875.33;1738447;82;21062;-84
2022/03/07 00:49:34;;;;;;;41.20;26.48;;;;;;;-2.26;70.66;96877.70;1738365;82;21073;-83
2022/03/07 00:52:00;;;;;;;46.25;27.32;;;;;;;-2.29;70.94;96884.23;1738517;82;21987;-83
2022/03/07 00:54:26;;;;;;;39.40;25.55;;;;;;;-2.29;71.07;96883.41;1732521;81;21017;-84
2022/03/07 00:56:53;;;;;;;37.33;25.62;;;;;;;-2.26;71.14;96885.80;1734148;82;21069;-83
2022/03/07 00:59:19;;;;;;;43.58;26.23;;;;;;;-2.25;71.07;96878.52;1738575;82;21124;-83
2022/03/07 01:01:44;;;;;;;38.15;25.02;;;;;;;-2.25;71.19;96878.52;1738633;82;20970;-83
2022/03/07 01:04:10;;;;;;;34.38;23.98;;;;;;;-2.22;71.39;96875.33;1738340;82;21419;-83
2022/03/07 01:06:36;;;;;;;35.03;24.55;;;;;;;-2.20;71.38;96872.70;1717631;82;21037;-83
2022/03/07 01:09:02;;;;;;;37.13;24.63;;;;;;;-2.24;71.06;96872.52;1738433;82;21029;-83
2022/03/07 01:11:27;;;;;;;39.27;25.60;;;;;;;-2.27;71.16;96874.80;1738432;82;21316;-83
2022/03/07 01:13:53;;;;;;;37.98;24.82;;;;;;;-2.26;71.30;96870.52;1738619;82;21728;-84
2022/03/07 01:16:19;;;;;;;36.93;24.67;;;;;;;-2.26;71.43;96873.07;1738595;82;20965;-83
2022/03/07 01:18:44;;;;;;;38.60;25.52;;;;;;;-2.25;71.46;96870.43;1738491;82;20993;-83
2022/03/07 01:21:12;;;;;;;38.17;26.87;;;;;;;-2.20;71.61;96873.97;1738541;82;21001;-84
2022/03/07 01:23:38;;;;;;;41.45;26.05;;;;;;;-2.17;71.71;96871.23;1738503;82;21025;-83
2022/03/07 01:26:04;;;;;;;43.95;26.82;;;;;;;-2.18;71.83;96864.05;1738582;82;20981;-83
2022/03/07 01:28:29;;;;;;;43.78;26.80;;;;;;;-2.16;71.85;96867.78;1738558;82;21408;-83
2022/03/07 01:30:55;;;;;;;44.58;28.17;;;;;;;-2.17;71.97;96863.14;1738587;82;21068;-83
2022/03/07 01:33:21;;;;;;;41.15;27.15;;;;;;;-2.18;72.04;96860.23;1738599;82;21001;-84
2022/03/07 01:35:46;;;;;;;40.05;26.27;;;;;;;-2.18;72.14;96860.69;1738527;82;21005;-84
2022/03/07 01:38:12;;;;;;;44.50;27.45;;;;;;;-2.14;72.35;96860.86;1717687;82;21348;-83
2022/03/07 01:40:42;;;;;;;44.48;29.25;;;;;;;-2.16;72.38;96853.31;1738342;82;21037;-83
2022/03/07 01:43:08;;;;;;;44.03;28.85;;;;;;;-2.16;72.50;96855.05;1738544;82;20968;-83
2022/03/07 01:45:33;;;;;;;42.17;27.20;;;;;;;-2.13;72.56;96853.58;1738548;82;20990;-83
2022/03/07 01:47:59;;;;;;;45.10;27.60;;;;;;;-2.11;72.62;96845.42;1717371;82;21009;-83
2022/03/07 01:50:25;;;;;;;43.42;29.92;;;;;;;-2.12;72.66;96852.67;1738584;82;20926;-83
2022/03/07 01:52:53;;;;;;;43.52;28.57;;;;;;;-2.09;72.74;96852.52;1738615;82;20994;-83
2022/03/07 01:55:19;;;;;;;38.58;26.45;;;;;;;-2.13;72.65;96855.67;1736301;81;21417;-83
2022/03/07 01:57:45;;;;;;;41.05;25.62;;;;;;;-2.14;72.75;96852.77;1738477;82;20981;-83
2022/03/07 02:00:17;;;;;;;41.68;27.17;;;;;;;-2.17;72.74;96852.14;1738421;82;21021;-84
2022/03/07 02:02:43;;;;;;;43.20;26.87;;;;;;;-2.21;72.69;96851.52;1738310;82;21420;-83
2022/03/07 02:05:10;;;;;;;41.58;28.15;;;;;;;-2.26;72.93;96852.70;1748024;81;20998;-83
2022/03/07 02:07:39;;;;;;;40.28;25.15;;;;;;;-2.33;72.72;96858.59;1751946;82;21031;-83
2022/03/07 02:10:06;;;;;;;41.63;28.32;;;;;;;-2.32;73.15;96859.41;1751521;82;21423;-83
2022/03/07 02:12:32;;;;;;;43.63;27.77;;;;;;;-2.39;73.03;96854.34;1752044;82;21438;-83
2022/03/07 02:14:57;;;;;;;43.42;30.05;;;;;;;-2.50;73.08;96855.77;1751883;82;21088;-83
2022/03/07 02:17:24;;;;;;;43.73;29.27;;;;;;;-2.55;73.18;96848.88;1751772;82;20964;-83
2022/03/07 02:19:51;;;;;;;39.27;27.20;;;;;;;-2.55;73.32;96851.88;1751638;82;21127;-83
2022/03/07 02:22:16;;;;;;;39.23;26.87;;;;;;;-2.81;73.41;96815.22;1751985;82;21076;-83
2022/03/07 02:24:43;;;;;;;43.40;28.40;;;;;;;-2.57;73.46;96854.52;1726665;82;20981;-83
2022/03/07 02:27:10;;;;;;;39.38;28.38;;;;;;;-2.55;73.71;96846.33;1726401;82;21000;-83
2022/03/07 02:29:37;;;;;;;38.45;27.98;;;;;;;-2.51;73.90;96850.32;1752242;82;21396;-83
2022/03/07 02:32:04;;;;;;;42.78;29.32;;;;;;;-2.49;73.68;96842.14;1751786;82;21060;-83
2022/03/07 02:34:30;;;;;;;40.80;27.65;;;;;;;-2.52;73.50;96838.52;1752146;82;21046;-83
2022/03/07 02:36:56;;;;;;;39.08;27.82;;;;;;;-2.54;73.46;96840.33;1752063;82;21068;-83
2022/03/07 02:39:22;;;;;;;42.40;28.05;;;;;;;-2.58;73.32;96838.88;1751845;82;20964;-83
2022/03/07 02:41:47;;;;;;;46.85;28.95;;;;;;;-2.54;73.62;96835.24;1752085;82;21017;-83
2022/03/07 02:44:13;;;;;;;40.95;27.82;;;;;;;-2.49;73.71;96829.42;1751957;82;21427;-83
2022/03/07 02:46:39;;;;;;;45.38;28.73;;;;;;;-2.48;73.46;96832.78;1751786;82;21068;-83
2022/03/07 02:49:05;;;;;;;39.85;27.10;;;;;;;-2.53;73.45;96830.97;1751856;82;21060;-83
2022/03/07 02:51:32;;;;;;;43.87;29.05;;;;;;;-2.52;73.54;96832.61;1751960;82;21017;-83
2022/03/07 02:53:58;;;;;;;45.70;27.70;;;;;;;-2.53;73.40;96833.06;1751425;80;20969;-83
2022/03/07 02:56:23;;;;;;;43.80;28.25;;;;;;;-2.54;73.36;96826.34;1751737;82;21041;-83
2022/03/07 02:58:49;;;;;;;39.23;27.80;;;;;;;-2.55;73.18;96833.61;1752153;82;21397;-83
2022/03/07 03:01:15;;;;;;;45.30;29.25;;;;;;;-2.55;73.29;96828.52;1751869;82;21112;-83
2022/03/07 03:03:41;;;;;;;43.00;28.87;;;;;;;-2.55;73.12;96828.97;1751795;82;20989;-83
2022/03/07 03:06:07;;;;;;;45.75;28.75;;;;;;;-2.55;73.24;96823.43;1738723;82;21009;-83
2022/03/07 03:08:33;;;;;;;42.58;28.55;;;;;;;-2.53;73.35;96823.34;1738354;82;20997;-83
2022/03/07 03:10:59;;;;;;;43.70;29.25;;;;;;;-2.52;73.32;96821.16;1738385;82;21388;-84
2022/03/07 03:13:25;;;;;;;38.65;27.55;;;;;;;-2.51;73.10;96826.16;1738402;82;20997;-83
2022/03/07 03:15:52;;;;;;;43.40;29.05;;;;;;;-2.50;73.11;96819.33;1738385;82;20974;-83
2022/03/07 03:18:18;;;;;;;41.25;27.85;;;;;;;-2.49;73.14;96820.52;1738347;82;21396;-83
2022/03/07 03:20:46;;;;;;;42.27;28.38;;;;;;;-2.49;73.13;96817.15;1738266;82;21069;-83
2022/03/07 03:23:12;;;;;;;43.08;28.25;;;;;;;-2.50;73.13;96821.42;1738630;82;20950;-83
2022/03/07 03:25:38;;;;;;;43.48;28.77;;;;;;;-2.50;73.16;96823.16;1738491;82;21075;-83
2022/03/07 03:28:04;;;;;;;42.00;29.05;;;;;;;-2.51;73.01;96826.16;1738597;82;20982;-84
2022/03/07 03:30:30;;;;;;;44.67;30.92;;;;;;;-2.50;72.83;96820.61;1738372;82;21157;-83
2022/03/07 03:32:56;;;;;;;43.48;28.38;;;;;;;-2.48;72.92;96825.96;1742060;82;21070;-83
2022/03/07 03:35:22;;;;;;;41.53;27.22;;;;;;;-2.48;73.04;96818.78;1738531;82;21009;-84
2022/03/07 03:37:48;;;;;;;43.70;28.80;;;;;;;-2.42;73.01;96819.71;1738654;82;20982;-83
2022/03/07 03:40:13;;;;;;;40.12;28.23;;;;;;;-2.43;73.05;96815.08;1738553;82;21037;-83
2022/03/07 03:42:40;;;;;;;40.60;28.30;;;;;;;-2.45;72.98;96810.51;1738394;82;21384;-83
2022/03/07 03:45:08;;;;;;;45.43;30.75;;;;;;;-2.44;72.99;96817.27;1738552;82;21001;-83
2022/03/07 03:47:43;;;;;;;41.42;29.92;;;;;;;-2.44;72.92;96817.27;1738616;82;21013;-83
2022/03/07 03:50:11;;;;;;;41.60;29.10;;;;;;;-2.46;72.84;96821.59;1738615;82;21432;-83
2022/03/07 03:52:37;;;;;;;45.43;29.52;;;;;;;-2.45;72.98;96821.95;1738776;82;21112;-83
2022/03/07 03:55:05;;;;;;;45.35;28.62;;;;;;;-2.49;72.85;96819.70;1732409;81;21377;-83
2022/03/07 03:57:30;;;;;;;42.30;31.25;;;;;;;-2.73;72.72;96778.73;1738468;82;21028;-83
2022/03/07 03:59:56;;;;;;;44.60;30.00;;;;;;;-2.57;72.30;96809.17;1738380;82;21463;-83
2022/03/07 04:02:22;;;;;;;45.25;29.00;;;;;;;-2.62;72.65;96811.96;1738557;82;20974;-83
2022/03/07 04:04:48;;;;;;;45.10;30.23;;;;;;;-2.62;72.61;96808.14;1743388;82;21061;-83
2022/03/07 04:07:14;;;;;;;45.92;32.30;;;;;;;-2.59;72.97;96805.45;1752114;82;21092;-83
2022/03/07 04:09:40;;;;;;;49.40;30.25;;;;;;;-2.54;72.99;96808.52;1726803;82;21053;-83
2022/03/07 04:12:07;;;;;;;45.33;30.65;;;;;;;-2.57;72.58;96809.17;1752188;82;20957;-83
2022/03/07 04:14:32;;;;;;;45.70;31.15;;;;;;;-2.58;72.50;96810.08;1752254;82;21463;-83
2022/03/07 04:16:59;;;;;;;48.02;31.87;;;;;;;-2.60;72.29;96816.98;1751937;82;20981;-83
2022/03/07 04:19:25;;;;;;;49.38;31.07;;;;;;;-2.60;72.57;96814.45;1752045;81;21350;-83
2022/03/07 04:21:52;;;;;;;51.70;32.67;;;;;;;-2.65;72.58;96809.60;1752386;82;20985;-84
2022/03/07 04:24:17;;;;;;;45.43;30.95;;;;;;;-2.66;72.47;96800.80;1751900;82;21383;-83
2022/03/07 04:26:44;;;;;;;46.92;31.90;;;;;;;-2.67;72.49;96806.80;1752110;81;20942;-83
2022/03/07 04:29:10;;;;;;;51.23;32.40;;;;;;;-2.69;72.44;96808.61;1752153;82;20981;-84
2022/03/07 04:31:40;;;;;;;47.40;32.98;;;;;;;-2.70;72.26;96800.62;1752040;81;21470;-83
2022/03/07 04:34:06;;;;;;;49.85;32.58;;;;;;;-2.73;72.17;96802.89;1752082;82;21439;-83
2022/03/07 04:36:34;;;;;;;49.05;32.05;;;;;;;-2.72;72.23;96804.53;1752237;81;21027;-83
2022/03/07 04:39:00;;;;;;;51.58;31.55;;;;;;;-2.72;72.10;96809.16;1751601;82;21419;-83
2022/03/07 04:41:27;;;;;;;54.50;34.60;;;;;;;-2.74;72.14;96805.08;1751984;82;21041;-83
2022/03/07 04:43:53;;;;;;;46.95;31.90;;;;;;;-2.76;72.09;96805.16;1752265;82;21367;-83
2022/03/07 04:46:19;;;;;;;44.98;32.20;;;;;;;-2.78;72.04;96806.95;1751931;82;21036;-83
2022/03/07 04:48:45;;;;;;;44.05;32.28;;;;;;;-2.80;72.12;96804.95;1751234;82;21107;-83
2022/03/07 04:51:10;;;;;;;46.23;32.60;;;;;;;-2.80;72.07;96806.23;1752178;82;21435;-83
2022/03/07 04:53:36;;;;;;;44.15;29.77;;;;;;;-2.81;72.00;96805.86;1752195;80;21040;-83
2022/03/07 04:56:02;;;;;;;48.17;30.57;;;;;;;-2.84;71.94;96813.67;1751038;80;21046;-83
2022/03/07 04:58:28;;;;;;;47.58;30.37;;;;;;;-2.83;71.91;96808.95;1751704;82;21052;-83
2022/03/07 05:00:54;;;;;;;47.38;30.48;;;;;;;-2.83;72.04;96800.51;1751906;82;21461;-83
2022/03/07 05:03:22;;;;;;;45.55;30.12;;;;;;;-2.86;71.82;96794.33;1751877;82;20994;-83
2022/03/07 05:05:48;;;;;;;45.40;31.00;;;;;;;-2.90;71.93;96792.43;1747288;82;21024;-83
2022/03/07 05:08:15;;;;;;;46.15;30.12;;;;;;;-2.91;71.94;96802.69;1745949;82;21005;-83
2022/03/07 05:10:41;;;;;;;44.90;30.70;;;;;;;-2.92;71.79;96806.14;1745974;82;21053;-83
2022/03/07 05:13:07;;;;;;;41.08;27.90;;;;;;;-2.97;71.70;96805.11;1746358;82;20950;-83
2022/03/07 05:15:33;;;;;;;46.90;29.65;;;;;;;-3.04;71.58;96810.20;1718947;82;20958;-83
2022/03/07 05:17:58;;;;;;;44.03;29.20;;;;;;;-3.06;71.62;96806.48;1719037;82;21055;-83
2022/03/07 05:20:25;;;;;;;42.33;29.25;;;;;;;-3.09;71.59;96805.84;1718880;82;20990;-83
2022/03/07 05:22:50;;;;;;;40.05;28.95;;;;;;;-3.08;71.59;96804.94;1746332;82;21427;-83
2022/03/07 05:25:17;;;;;;;43.95;30.88;;;;;;;-3.10;71.65;96803.72;1746052;82;20966;-83
2022/03/07 05:27:43;;;;;;;42.78;27.48;;;;;;;-3.12;71.62;96804.27;1746043;82;21004;-83
2022/03/07 05:30:14;;;;;;;37.38;26.93;;;;;;;-3.13;71.69;96810.26;1746286;82;21363;-83
2022/03/07 05:32:40;;;;;;;42.23;29.93;;;;;;;-3.12;71.76;96816.98;1746542;82;21037;-83
2022/03/07 05:35:07;;;;;;;36.05;25.37;;;;;;;-3.12;71.71;96823.33;1746302;81;20981;-84
2022/03/07 05:37:33;;;;;;;38.28;27.07;;;;;;;-3.11;71.61;96833.86;1746032;82;21345;-83
2022/03/07 05:39:58;;;;;;;35.28;26.70;;;;;;;-3.12;71.69;96827.59;1746019;82;21005;-83
2022/03/07 05:42:24;;;;;;;42.30;27.00;;;;;;;-3.11;71.71;96827.96;1746167;82;20978;-83
2022/03/07 05:44:52;;;;;;;47.10;32.23;;;;;;;-3.11;71.83;96830.05;1746311;82;20961;-83
2022/03/07 05:47:18;;;;;;;47.10;31.60;;;;;;;-3.10;71.72;96838.04;1746095;82;21021;-83
2022/03/07 05:49:44;;;;;;;51.95;32.63;;;;;;;-3.07;71.72;96835.35;1745986;82;21336;-83
2022/03/07 05:52:09;;;;;;;45.17;29.67;;;;;;;-3.02;71.68;96838.44;1746109;82;20997;-83
2022/03/07 05:54:35;;;;;;;44.95;30.43;;;;;;;-2.95;71.43;96840.17;1746053;82;21024;-83
2022/03/07 05:57:01;;;;;;;45.20;31.10;;;;;;;-2.91;71.07;96839.56;1745867;82;21001;-83
2022/03/07 05:59:27;;;;;;;50.58;33.63;;;;;;;-2.88;71.22;96845.74;1746408;82;21341;-83
2022/03/07 06:01:53;;;;;;;56.40;33.67;;;;;;;-2.86;70.88;96846.02;1745953;82;21016;-83
2022/03/07 06:04:19;;;;;;;50.48;31.85;;;;;;;-2.83;70.46;96846.28;1743798;82;21029;-83
2022/03/07 06:06:45;;;;;;;50.55;33.00;;;;;;;-2.79;70.83;96849.01;1744425;82;21422;-83
2022/03/07 06:09:10;;;;;;;53.05;33.98;;;;;;;-2.77;70.01;96848.46;1743540;82;21037;-83
2022/03/07 06:11:36;;;;;;;57.43;35.00;;;;;;;-2.73;70.03;96850.77;1743628;82;20974;-83
2022/03/07 06:14:02;;;;;;;55.70;35.80;;;;;;;-2.65;70.30;96852.03;1743681;81;20994;-83
2022/03/07 06:16:28;;;;;;;53.40;34.38;;;;;;;-2.62;70.24;96858.20;1743933;82;21375;-83
2022/03/07 06:18:54;;;;;;;57.88;33.92;;;;;;;-2.57;70.22;96857.05;1743604;82;20957;-83
2022/03/07 06:21:19;;;;;;;58.83;34.73;;;;;;;-2.51;69.55;96856.69;1743600;82;21025;-83
2022/03/07 06:23:45;;;;;;;53.38;34.70;;;;;;;-2.48;69.33;96857.77;1743840;82;20986;-83
2022/03/07 06:26:11;;;;;;;51.73;32.45;;;;;;;-2.48;68.89;96859.05;1743617;82;21392;-83
2022/03/07 06:28:36;;;;;;;52.67;31.42;;;;;;;-2.46;68.55;96869.95;1743653;82;20978;-83
2022/03/07 06:31:03;;;;;;;52.50;35.10;;;;;;;-2.48;68.50;96867.13;1740917;82;21076;-83
2022/03/07 06:33:28;;;;;;;44.13;29.37;;;;;;;-2.40;68.66;96858.61;1743671;82;21360;-83
2022/03/07 06:35:54;;;;;;;46.70;31.70;;;;;;;-2.32;68.29;96855.14;1743796;82;20985;-83
2022/03/07 06:38:21;;;;;;;37.33;27.45;;;;;;;-2.26;68.00;96861.16;1744198;82;21018;-83
2022/03/07 06:40:47;;;;;;;39.63;27.15;;;;;;;-2.32;67.37;96864.50;1743435;82;21375;-83
2022/03/07 06:43:12;;;;;;;38.75;26.68;;;;;;;-2.39;66.80;96866.61;1743959;82;20990;-83
2022/03/07 06:45:39;;;;;;;38.70;28.10;;;;;;;-2.44;67.14;96871.98;1743617;82;21005;-83
2022/03/07 06:48:05;;;;;;;38.48;26.73;;;;;;;-2.45;66.83;96872.03;1743800;82;20962;-83
2022/03/07 06:50:30;;;;;;;35.65;26.20;;;;;;;-2.39;67.55;96865.79;1743903;82;20981;-83
2022/03/07 06:52:56;;;;;;;42.45;28.65;;;;;;;-2.34;67.12;96870.14;1743760;82;21443;-83
2022/03/07 06:55:22;;;;;;;36.95;26.93;;;;;;;-2.31;67.36;96872.05;1743870;82;20989;-83
2022/03/07 06:57:48;;;;;;;36.58;26.93;;;;;;;-2.20;67.59;96876.06;1743607;82;20974;-83
2022/03/07 07:00:15;;;;;;;37.03;28.20;;;;;;;-2.05;67.47;96870.97;1716399;82;21514;-83
2022/03/07 07:02:42;;;;;;;33.85;26.05;;;;;;;-1.93;67.23;96871.05;1743926;82;21127;-84
2022/03/07 07:05:08;;;;;;;28.67;20.10;;;;;;;-2.03;65.71;96867.41;1743014;82;21376;-83
2022/03/07 07:07:34;;;;;;;32.00;22.58;;;;;;;-2.17;66.15;96869.96;1738445;82;21396;-83
2022/03/07 07:10:00;;;;;;;37.30;26.30;;;;;;;-2.26;65.91;96867.52;1738302;82;21045;-83
2022/03/07 07:12:25;;;;;;;45.10;29.60;;;;;;;-2.31;66.75;96875.87;1738611;82;21009;-83
2022/03/07 07:14:51;;;;;;;34.10;25.30;;;;;;;-2.20;67.31;96872.23;1738614;82;21375;-83
2022/03/07 07:17:17;;;;;;;34.48;25.88;;;;;;;-2.00;67.09;96871.04;1738692;82;21435;-83
2022/03/07 07:19:43;;;;;;;34.65;25.92;;;;;;;-1.91;67.22;96877.32;1738411;82;21001;-83
2022/03/07 07:22:08;;;;;;;32.05;24.37;;;;;;;-1.80;67.00;96877.47;1734484;81;20942;-83
2022/03/07 07:24:35;;;;;;;26.55;21.02;;;;;;;-1.71;66.87;96879.47;1733863;82;21041;-83
2022/03/07 07:27:00;;;;;;;24.35;17.87;;;;;;;-1.72;66.28;96881.66;1738777;82;21368;-83
2022/03/07 07:29:26;;;;;;;26.10;19.98;;;;;;;-1.75;66.14;96879.75;1738566;82;21057;-83
2022/03/07 07:31:52;;;;;;;24.87;20.50;;;;;;;-1.80;66.52;96874.92;1738477;82;21088;-83
2022/03/07 07:34:19;;;;;;;27.60;22.73;;;;;;;-1.78;66.47;96885.05;1738737;82;21041;-83
2022/03/07 07:36:45;;;;;;;23.32;20.43;;;;;;;-1.86;66.32;96886.77;1738528;82;21021;-83
2022/03/07 07:39:10;;;;;;;30.55;22.90;;;;;;;-1.89;66.32;96884.41;1738635;82;21009;-83
2022/03/07 07:41:36;;;;;;;26.02;21.45;;;;;;;-1.88;66.49;96882.22;1738482;82;21066;-83
2022/03/07 07:44:02;;;;;;;29.35;20.97;;;;;;;-1.89;66.33;96890.32;1738606;82;20981;-83
2022/03/07 07:46:27;;;;;;;27.95;20.52;;;;;;;-2.00;66.13;96886.77;1738485;82;20950;-83
2022/03/07 07:49:05;;;;;;;26.02;21.48;;;;;;;-2.03;66.57;96881.41;1738518;82;21055;-82
2022/03/07 07:51:31;;;;;;;24.75;18.32;;;;;;;-1.99;66.96;96881.59;1738525;82;21353;-83
2022/03/07 07:53:57;;;;;;;22.05;18.77;;;;;;;-2.04;66.70;96884.88;1738532;82;21014;-83
2022/03/07 07:56:23;;;;;;;25.72;20.95;;;;;;;-2.10;67.28;96889.07;1738638;82;21010;-83
2022/03/07 07:58:49;;;;;;;26.30;20.15;;;;;;;-2.13;67.35;96882.86;1738607;82;20970;-83
2022/03/07 08:01:14;;;;;;;32.65;24.35;;;;;;;-2.08;67.82;96891.07;1738485;82;21503;-83
2022/03/07 08:03:41;;;;;;;31.62;24.37;;;;;;;-2.16;67.76;96886.42;1738452;82;20982;-83
2022/03/07 08:06:06;;;;;;;25.32;20.72;;;;;;;-2.18;67.94;96895.88;1744947;82;21021;-83
2022/03/07 08:08:32;;;;;;;32.73;23.90;;;;;;;-2.18;67.69;96884.42;1752122;82;21065;-83
2022/03/07 08:10:59;;;;;;;31.45;22.50;;;;;;;-2.10;68.28;96882.70;1751934;82;21376;-83
2022/03/07 08:13:24;;;;;;;32.50;23.02;;;;;;;-1.93;68.33;96883.78;1752290;82;20941;-83
2022/03/07 08:15:50;;;;;;;32.00;24.37;;;;;;;-1.88;68.19;96881.77;1726587;82;21044;-83
2022/03/07 08:18:17;;;;;;;29.75;23.30;;;;;;;-1.72;68.67;96891.02;1751550;82;21088;-83
2022/03/07 08:20:43;;;;;;;32.10;24.43;;;;;;;-1.63;68.01;96887.89;1752060;82;20945;-83
2022/03/07 08:23:09;;;;;;;30.02;22.70;;;;;;;-1.55;68.64;96889.08;1751106;80;21005;-83
2022/03/07 08:25:35;;;;;;;29.18;22.27;;;;;;;-1.51;67.90;96886.69;1752044;81;21028;-83
2022/03/07 08:28:00;;;;;;;30.02;22.85;;;;;;;-1.41;67.70;96893.33;1752112;82;20973;-83
2022/03/07 08:30:28;;;;;;;30.60;23.35;;;;;;;-1.37;68.34;96892.21;1752222;81;21032;-83
2022/03/07 08:32:54;;;;;;;21.33;15.68;;;;;;;-1.25;68.05;96890.63;1752050;82;21100;-83
2022/03/07 08:35:20;;;;;;;28.32;22.95;;;;;;;-1.21;67.33;96889.52;1751901;82;21383;-83
2022/03/07 08:37:47;;;;;;;30.23;21.87;;;;;;;-1.33;67.00;96893.64;1751988;82;21004;-83
2022/03/07 08:40:15;;;;;;;29.95;23.15;;;;;;;-1.33;67.42;96887.73;1752098;82;21441;-83
2022/03/07 08:42:41;;;;;;;30.08;22.67;;;;;;;-1.21;67.53;96886.51;1752227;82;21007;-83
2022/03/07 08:45:08;;;;;;;32.05;24.10;;;;;;;-1.09;67.35;96883.65;1727475;82;21391;-83
2022/03/07 08:47:35;;;;;;;30.65;22.98;;;;;;;-0.92;67.37;96882.56;1752142;82;20997;-83
2022/03/07 08:50:02;;;;;;;27.42;20.50;;;;;;;-0.77;67.17;96878.21;1752068;82;21052;-84
2022/03/07 08:52:28;;;;;;;31.40;23.40;;;;;;;-0.64;67.09;96869.66;1752077;82;20933;-84
2022/03/07 08:54:54;;;;;;;30.65;22.87;;;;;;;-0.65;66.31;96870.58;1752059;81;20989;-84
2022/03/07 08:57:20;;;;;;;26.05;20.35;;;;;;;-0.62;66.87;96866.55;1752065;81;21041;-83
2022/03/07 08:59:45;;;;;;;28.17;22.95;;;;;;;-0.50;66.57;96865.36;1751984;82;20985;-83
2022/03/07 09:02:12;;;;;;;31.25;24.25;;;;;;;-0.48;66.35;96860.99;1752121;82;21455;-84
2022/03/07 09:04:42;;;;;;;32.63;24.72;;;;;;;-0.43;65.95;96859.75;1751748;82;21052;-83
2022/03/07 09:07:08;;;;;;;29.98;22.42;;;;;;;-0.33;66.14;96859.94;1751024;82;21591;-83
2022/03/07 09:09:34;;;;;;;29.02;22.27;;;;;;;-0.28;66.05;96863.02;1751960;82;21024;-84
2022/03/07 09:12:02;;;;;;;30.32;23.75;;;;;;;-0.22;65.86;96862.59;1751901;82;20968;-84
2022/03/07 09:14:27;;;;;;;24.92;21.50;;;;;;;-0.13;65.73;96859.44;1752090;82;20996;-83
2022/03/07 09:16:53;;;;;;;29.63;22.77;;;;;;;-0.17;65.21;96856.71;1751964;81;21052;-84
2022/03/07 09:19:19;;;;;;;26.93;20.23;;;;;;;-0.14;65.61;96862.09;1751631;82;21003;-83
2022/03/07 09:21:45;;;;;;;26.80;20.72;;;;;;;-0.16;65.47;96859.66;1751097;80;21111;-84
2022/03/07 09:24:10;;;;;;;31.27;22.35;;;;;;;-0.41;64.59;96858.38;1751983;82;21356;-83
2022/03/07 09:26:36;;;;;;;31.35;22.50;;;;;;;-0.51;65.50;96865.81;1752168;82;21035;-83
2022/03/07 09:29:02;;;;;;;27.05;20.35;;;;;;;-0.56;65.73;96858.11;1750872;82;21019;-83
2022/03/07 09:31:28;;;;;;;28.20;21.52;;;;;;;-0.51;65.48;96867.55;1751990;82;21428;-83
2022/03/07 09:33:54;;;;;;;30.52;23.47;;;;;;;-0.58;65.59;96870.98;1751948;82;21065;-83
2022/03/07 09:36:20;;;;;;;35.95;25.17;;;;;;;-0.48;65.97;96870.74;1751954;81;21053;-83
2022/03/07 09:38:45;;;;;;;29.48;23.57;;;;;;;-0.32;65.95;96870.54;1751519;82;21100;-83
2022/03/07 09:41:12;;;;;;;30.97;22.73;;;;;;;-0.15;66.08;96875.33;1751877;82;21021;-83
2022/03/07 09:43:38;;;;;;;35.23;24.25;;;;;;;-0.07;65.04;96875.61;1751962;82;21081;-83
2022/03/07 09:46:04;;;;;;;29.30;23.27;;;;;;;-0.09;65.41;96868.98;1751867;82;21088;-84
2022/03/07 09:48:30;;;;;;;34.27;22.10;;;;;;;0.09;65.53;96873.30;1751650;82;21065;-84
2022/03/07 09:50:56;;;;;;;26.97;19.90;;;;;;;0.23;65.22;96866.78;1751970;82;21075;-84
2022/03/07 09:53:22;;;;;;;27.73;21.42;;;;;;;0.25;64.22;96863.65;1752127;82;21108;-84
2022/03/07 09:55:48;;;;;;;26.48;19.42;;;;;;;0.21;63.56;96869.44;1752292;82;21416;-83
2022/03/07 09:58:14;;;;;;;31.85;22.32;;;;;;;0.24;63.69;96871.78;1752134;82;21101;-84
2022/03/07 10:00:43;;;;;;;38.48;27.20;;;;;;;0.30;64.28;96865.41;1752149;82;21041;-84
2022/03/07 10:03:11;;;;;;;40.40;27.82;;;;;;;0.39;64.52;96867.34;1751990;82;20989;-83
2022/03/07 10:05:43;;;;;;;51.35;32.90;;;;;;;0.56;64.94;96861.05;1751576;82;21000;-83
2022/03/07 10:08:09;;;;;;;42.62;29.50;;;;;;;0.78;64.97;96862.89;1738474;82;21086;-83
2022/03/07 10:10:40;;;;;;;39.08;28.02;;;;;;;0.90;64.52;96862.02;1738391;82;21108;-84
2022/03/07 10:13:11;;;;;;;35.60;27.10;;;;;;;1.03;64.34;96864.05;1738381;82;20950;-83
2022/03/07 10:15:38;;;;;;;45.20;32.83;;;;;;;1.06;62.90;96852.31;1737564;82;21072;-83
2022/03/07 10:18:03;;;;;;;38.98;28.90;;;;;;;1.18;63.87;96850.61;1738387;82;20954;-84
2022/03/07 10:20:29;;;;;;;40.35;28.40;;;;;;;1.44;63.27;96852.52;1738570;82;20978;-84
2022/03/07 10:22:58;;;;;;;34.08;24.50;;;;;;;1.50;62.64;96855.45;1741995;82;21088;-84
2022/03/07 10:25:28;;;;;;;32.40;25.02;;;;;;;1.58;61.20;96852.30;1738253;82;21013;-84
2022/03/07 10:27:54;;;;;;;31.17;23.67;;;;;;;1.57;61.99;96851.95;1738424;82;21009;-84
2022/03/07 10:30:29;;;;;;;34.92;24.47;;;;;;;1.63;61.54;96854.55;1737482;81;20995;-84
2022/03/07 10:33:11;;;;;;;29.67;22.65;;;;;;;1.73;60.48;96858.84;1712353;82;21041;-84
2022/03/07 10:35:41;;;;;;;28.83;23.75;;;;;;;1.65;60.56;96852.69;1738580;82;21001;-84
2022/03/07 10:38:13;;;;;;;32.93;24.32;;;;;;;1.70;60.56;96853.14;1738312;82;20969;-84
2022/03/07 10:40:44;;;;;;;30.50;22.93;;;;;;;1.60;60.10;96848.34;1738559;82;21085;-84
2022/03/07 10:43:12;;;;;;;30.95;23.40;;;;;;;1.33;60.12;96855.07;1738540;82;20966;-84
2022/03/07 10:45:54;;;;;;;31.77;23.65;;;;;;;1.17;60.98;96848.98;1738204;82;21014;-84
2022/03/07 10:48:21;;;;;;;25.23;18.95;;;;;;;1.21;61.24;96852.94;1730508;82;21294;-83
2022/03/07 10:50:58;;;;;;;26.57;19.67;;;;;;;1.31;60.26;96849.25;1738290;82;21412;-84
2022/03/07 10:53:24;;;;;;;25.40;19.25;;;;;;;1.37;59.63;96852.63;1737759;82;20990;-84
2022/03/07 10:55:59;;;;;;;29.25;22.13;;;;;;;1.20;59.02;96855.97;1738540;82;20970;-84
2022/03/07 10:58:26;;;;;;;35.95;21.40;;;;;;;1.02;58.76;96854.75;1738392;82;20974;-84
2022/03/07 11:00:57;;;;;;;25.60;18.12;;;;;;;0.87;59.34;96847.71;1738585;82;21116;-84
2022/03/07 11:03:33;;;;;;;28.30;21.82;;;;;;;0.83;59.46;96855.72;1738460;82;21029;-84
2022/03/07 11:05:59;;;;;;;30.08;20.88;;;;;;;0.62;59.35;96854.67;1738204;82;21013;-84
2022/03/07 11:08:25;;;;;;;32.25;21.80;;;;;;;0.56;60.15;96833.73;1738314;82;21368;-84
2022/03/07 11:10:56;;;;;;;32.03;21.10;;;;;;;0.72;60.00;96851.83;1738239;81;21057;-84
2022/03/07 11:13:29;;;;;;;20.85;16.45;;;;;;;0.87;60.21;96852.83;1738335;82;21344;-84
2022/03/07 11:15:57;;;;;;;18.92;14.75;;;;;;;0.90;58.67;96853.88;1738448;82;21425;-84